Time;durP1;ratioP1;P1;durP2;ratioP2;P2;SDS_P1;SDS_P2;PMS_P1;PMS_P2;Temp;Humidity;BMP_temperature;BMP_pressure;BME280_temperature;BME280_humidity;BME280_pressure;Samples;Min_cycle;Max_cycle;Signal;HPM_P1;HPM_P2
2022/08/26 00:00:30;;;;;;;17.20;13.73;;;17.80;99.90;;;;;;5044658;28;20082;-37
2022/08/26 00:02:57;;;;;;;20.20;14.30;;;17.80;99.90;;;;;;5046237;28;20048;-37
2022/08/26 00:05:24;;;;;;;16.13;14.43;;;17.80;99.90;;;;;;5046367;28;20469;-37
2022/08/26 00:07:50;;;;;;;16.08;14.23;;;17.70;99.90;;;;;;5046271;28;20502;-37
2022/08/26 00:10:16;;;;;;;20.58;15.48;;;17.80;99.90;;;;;;5045847;28;20518;-37
2022/08/26 00:12:42;;;;;;;20.05;17.92;;;17.70;99.90;;;;;;5046096;28;20443;-37
2022/08/26 00:15:10;;;;;;;18.42;16.52;;;17.70;99.90;;;;;;5046181;28;20087;-37
2022/08/26 00:17:36;;;;;;;18.05;16.25;;;17.70;99.90;;;;;;5046547;28;20045;-37
2022/08/26 00:20:05;;;;;;;23.13;18.90;;;17.60;99.90;;;;;;5046644;28;20399;-37
2022/08/26 00:22:31;;;;;;;19.60;17.50;;;17.60;99.90;;;;;;5046494;28;20505;-37
2022/08/26 00:24:57;;;;;;;24.05;21.48;;;17.60;99.90;;;;;;5046190;28;20076;-37
2022/08/26 00:27:23;;;;;;;27.05;23.48;;;17.60;99.90;;;;;;5045955;28;20133;-37
2022/08/26 00:29:48;;;;;;;29.10;26.23;;;17.60;99.90;;;;;;5045896;28;20565;-37
2022/08/26 00:32:14;;;;;;;33.65;29.38;;;17.60;99.90;;;;;;5045811;28;20040;-37
2022/08/26 00:34:40;;;;;;;29.40;26.27;;;17.60;99.90;;;;;;5046239;28;20099;-37
2022/08/26 00:37:06;;;;;;;29.58;26.75;;;17.50;99.90;;;;;;5044599;28;20102;-37
2022/08/26 00:39:31;;;;;;;30.23;27.25;;;17.40;99.90;;;;;;5045815;28;20068;-37
2022/08/26 00:41:57;;;;;;;33.50;29.95;;;17.40;99.90;;;;;;5045699;28;20475;-37
2022/08/26 00:44:23;;;;;;;30.52;25.65;;;17.30;99.90;;;;;;5045699;28;20052;-37
2022/08/26 00:46:54;;;;;;;34.00;30.40;;;17.30;99.90;;;;;;5045736;28;20044;-37
2022/08/26 00:49:33;;;;;;;32.38;29.15;;;17.20;99.90;;;;;;5045594;28;20455;-37
2022/08/26 00:52:01;;;;;;;33.45;30.15;;;17.20;99.90;;;;;;5045523;28;20041;-37
2022/08/26 00:54:31;;;;;;;39.03;34.90;;;17.40;99.90;;;;;;5045248;28;20045;-38
2022/08/26 00:57:03;;;;;;;39.90;35.88;;;17.10;99.90;;;;;;5045911;28;20386;-37
2022/08/26 00:59:30;;;;;;;38.30;34.55;;;17.10;99.90;;;;;;5045548;28;20059;-37
2022/08/26 01:01:56;;;;;;;39.72;35.55;;;17.00;99.90;;;;;;5046655;28;20084;-37
2022/08/26 01:04:23;;;;;;;42.28;37.78;;;17.00;99.90;;;;;;5049212;28;20060;-37
2022/08/26 01:06:51;;;;;;;42.42;38.22;;;15.40;99.90;;;;;;5049220;28;20060;-37
2022/08/26 01:09:18;;;;;;;40.22;36.13;;;16.90;99.90;;;;;;5049147;28;20223;-37
2022/08/26 01:11:45;;;;;;;40.75;36.67;;;16.90;99.90;;;;;;5048792;28;20490;-37
2022/08/26 01:14:12;;;;;;;41.15;37.08;;;16.80;99.90;;;;;;5048609;28;20056;-37
2022/08/26 01:16:38;;;;;;;48.03;43.00;;;16.80;99.90;;;;;;5048731;28;20777;-37
2022/08/26 01:19:16;;;;;;;43.83;39.15;;;16.80;99.90;;;;;;5049116;28;20033;-37
2022/08/26 01:21:54;;;;;;;41.35;37.03;;;16.80;99.90;;;;;;5049267;28;20372;-37
2022/08/26 01:24:20;;;;;;;48.25;43.42;;;16.70;99.90;;;;;;5048754;28;20059;-37
2022/08/26 01:26:46;;;;;;;45.38;40.85;;;16.70;99.90;;;;;;5048900;28;20074;-37
2022/08/26 01:29:16;;;;;;;46.50;41.78;;;16.80;99.90;;;;;;5048953;28;20049;-37
2022/08/26 01:31:45;;;;;;;49.92;44.47;;;16.80;99.90;;;;;;5048767;28;20215;-37
2022/08/26 01:34:11;;;;;;;49.35;43.90;;;16.80;99.90;;;;;;5048784;28;20052;-37
2022/08/26 01:36:38;;;;;;;47.95;42.90;;;16.80;99.90;;;;;;5048638;28;20037;-37
2022/08/26 01:39:05;;;;;;;50.47;44.08;;;16.80;99.90;;;;;;5048845;28;20037;-37
2022/08/26 01:41:31;;;;;;;61.45;47.03;;;16.90;99.90;;;;;;5047967;28;20041;-37
2022/08/26 01:43:59;;;;;;;52.83;47.05;;;17.00;99.90;;;;;;5048754;28;20056;-37
2022/08/26 01:46:27;;;;;;;47.25;42.25;;;17.20;99.90;;;;;;5048356;28;20407;-37
2022/08/26 01:48:55;;;;;;;48.80;42.80;;;17.20;99.90;;;;;;5048542;28;20147;-37
2022/08/26 01:51:23;;;;;;;45.30;39.25;;;17.20;99.90;;;;;;5048081;28;20566;-37
2022/08/26 01:53:48;;;;;;;42.88;37.40;;;17.30;99.90;;;;;;5048847;28;20067;-37
2022/08/26 01:56:14;;;;;;;45.38;36.75;;;17.40;99.90;;;;;;5048821;28;20041;-37
2022/08/26 01:58:53;;;;;;;49.53;36.40;;;17.50;99.90;;;;;;5048743;28;20044;-37
2022/08/26 02:01:20;;;;;;;45.45;39.28;;;17.60;99.90;;;;;;5048044;28;20495;-37
2022/08/26 02:04:04;;;;;;;48.38;39.13;;;17.70;99.90;;;;;;5048791;28;20112;-37
2022/08/26 02:06:31;;;;;;;39.45;33.60;;;18.00;99.90;;;;;;5048419;28;20063;-37
2022/08/26 02:09:00;;;;;;;53.65;39.80;;;18.00;99.90;;;;;;5048156;28;20041;-37
2022/08/26 02:11:26;;;;;;;49.47;39.17;;;18.10;99.90;;;;;;5047533;28;20411;-37
2022/08/26 02:13:56;;;;;;;42.47;35.63;;;18.10;99.90;;;;;;5047438;28;20071;-37
2022/08/26 02:16:25;;;;;;;42.72;35.25;;;18.20;99.90;;;;;;5047673;28;20555;-37
2022/08/26 02:18:54;;;;;;;46.65;37.40;;;18.30;99.90;;;;;;5047846;28;20091;-37
2022/08/26 02:21:20;;;;;;;51.58;38.95;;;18.30;99.90;;;;;;5047916;28;20049;-37
2022/08/26 02:23:46;;;;;;;41.90;34.28;;;18.40;99.90;;;;;;5047965;28;20037;-37
2022/08/26 02:26:19;;;;;;;40.15;32.28;;;18.40;99.90;;;;;;5047947;28;20076;-37
2022/08/26 02:29:13;;;;;;;47.65;37.30;;;18.50;99.90;;;;;;5047776;28;20514;-37
2022/08/26 02:31:39;;;;;;;49.90;36.00;;;18.60;99.90;;;;;;5031292;28;20057;-37
2022/08/26 02:34:14;;;;;;;43.97;35.90;;;18.60;99.90;;;;;;5047706;28;20406;-37
2022/08/26 02:36:40;;;;;;;47.40;37.47;;;18.70;99.90;;;;;;5047504;28;20416;-37
2022/08/26 02:39:06;;;;;;;50.30;38.40;;;18.80;99.90;;;;;;5047691;28;20600;-37
2022/08/26 02:41:33;;;;;;;49.72;34.70;;;18.80;99.90;;;;;;5047533;28;20095;-37
2022/08/26 02:43:59;;;;;;;45.80;36.13;;;18.90;99.90;;;;;;5046023;28;20060;-37
2022/08/26 02:46:24;;;;;;;45.90;35.35;;;19.00;99.90;;;;;;5047185;28;20528;-37
2022/08/26 02:48:50;;;;;;;45.00;35.50;;;19.00;99.90;;;;;;5047457;28;20060;-37
2022/08/26 02:51:16;;;;;;;43.30;34.85;;;19.00;99.90;;;;;;5047484;28;20041;-37
2022/08/26 02:53:42;;;;;;;46.47;32.92;;;19.10;99.90;;;;;;5047194;28;20429;-37
2022/08/26 02:56:08;;;;;;;43.50;34.47;;;19.10;99.90;;;;;;5047197;28;20073;-37
2022/08/26 02:58:34;;;;;;;43.88;32.05;;;19.10;99.90;;;;;;5047500;28;20494;-37
2022/08/26 03:01:00;;;;;;;42.22;32.17;;;19.10;99.90;;;;;;5047292;28;20124;-37
2022/08/26 03:03:26;;;;;;;42.25;32.92;;;19.20;99.90;;;;;;5047019;28;20045;-37
2022/08/26 03:05:52;;;;;;;48.47;36.20;;;19.20;99.90;;;;;;5046871;28;20521;-37
2022/08/26 03:08:19;;;;;;;39.95;31.48;;;19.20;99.90;;;;;;5046590;28;20185;-37
2022/08/26 03:10:46;;;;;;;45.25;34.10;;;19.30;99.90;;;;;;5046480;28;20196;-37
2022/08/26 03:13:12;;;;;;;44.45;35.10;;;19.30;99.90;;;;;;5047042;28;20052;-37
2022/08/26 03:15:39;;;;;;;43.90;34.38;;;19.30;99.90;;;;;;5047132;28;20036;-37
2022/08/26 03:18:05;;;;;;;45.05;35.40;;;19.30;99.90;;;;;;5046925;28;20040;-37
2022/08/26 03:20:31;;;;;;;52.55;35.38;;;19.40;99.90;;;;;;5046807;28;20068;-37
2022/08/26 03:22:57;;;;;;;41.90;32.25;;;19.40;99.90;;;;;;5047043;28;20036;-37
2022/08/26 03:25:24;;;;;;;37.47;32.00;;;19.40;99.90;;;;;;5046495;28;20394;-37
2022/08/26 03:27:50;;;;;;;37.72;31.77;;;19.40;99.90;;;;;;5046750;28;20059;-37
2022/08/26 03:33:02;;;;;;;40.47;31.25;;;19.40;99.90;;;;;;5046591;28;20114;-37
2022/08/26 03:35:28;;;;;;;41.20;31.40;;;19.50;99.90;;;;;;5046583;28;20111;-37
2022/08/26 03:37:54;;;;;;;41.50;31.60;;;19.50;99.90;;;;;;5046969;28;20103;-37
2022/08/26 03:40:20;;;;;;;41.10;30.63;;;19.50;99.90;;;;;;5046895;28;20086;-37
2022/08/26 03:42:46;;;;;;;47.63;33.50;;;19.50;99.90;;;;;;5046801;28;20056;-37
2022/08/26 03:45:14;;;;;;;40.67;31.42;;;19.50;99.90;;;;;;5046761;28;20040;-37
2022/08/26 03:47:40;;;;;;;47.95;34.40;;;19.60;99.90;;;;;;5046315;28;20049;-37
2022/08/26 03:50:08;;;;;;;39.75;30.65;;;19.60;99.90;;;;;;5046758;28;20072;-37
2022/08/26 03:52:34;;;;;;;46.45;33.22;;;19.60;99.90;;;;;;5046376;28;20063;-37
2022/08/26 03:55:00;;;;;;;44.58;31.23;;;19.60;99.90;;;;;;5046620;28;20049;-37
2022/08/26 03:57:25;;;;;;;44.67;31.95;;;19.60;99.90;;;;;;5046475;28;20037;-37
2022/08/26 03:59:51;;;;;;;38.72;30.63;;;19.60;99.90;;;;;;5046135;28;20044;-37
2022/08/26 04:02:17;;;;;;;35.42;28.30;;;19.60;99.90;;;;;;5046384;28;20076;-37
2022/08/26 04:04:43;;;;;;;38.88;31.38;;;19.60;99.90;;;;;;5046378;28;20106;-37
2022/08/26 04:07:09;;;;;;;43.53;30.70;;;19.60;99.90;;;;;;5046170;28;20052;-37
2022/08/26 04:09:34;;;;;;;40.15;30.75;;;19.60;99.90;;;;;;5046104;28;20048;-37
2022/08/26 04:12:02;;;;;;;41.47;30.23;;;19.60;99.90;;;;;;5046365;28;20057;-37
2022/08/26 04:14:28;;;;;;;41.55;30.15;;;19.60;99.90;;;;;;5045972;28;20087;-37
2022/08/26 04:16:55;;;;;;;45.72;30.45;;;19.60;99.90;;;;;;5045633;28;20041;-37
2022/08/26 04:19:21;;;;;;;37.33;27.70;;;19.50;99.90;;;;;;5046330;28;20084;-37
2022/08/26 04:21:49;;;;;;;37.95;28.70;;;19.60;99.90;;;;;;5045540;28;20049;-37
2022/08/26 04:24:15;;;;;;;39.45;27.88;;;19.60;99.90;;;;;;5045719;28;20494;-37
2022/08/26 04:26:42;;;;;;;40.25;27.80;;;19.50;99.90;;;;;;5045782;28;20102;-37
2022/08/26 04:29:14;;;;;;;38.33;26.45;;;19.50;99.90;;;;;;5044327;28;20151;-37
2022/08/26 04:31:41;;;;;;;38.92;25.27;;;19.50;99.90;;;;;;5045762;28;20463;-37
2022/08/26 04:34:07;;;;;;;37.63;25.50;;;19.50;99.90;;;;;;5045693;28;20155;-37
2022/08/26 04:36:33;;;;;;;38.20;24.13;;;19.50;99.90;;;;;;5048360;28;20096;-37
2022/08/26 04:39:00;;;;;;;31.33;24.27;;;19.50;99.90;;;;;;5050026;28;20390;-37
2022/08/26 04:41:27;;;;;;;35.92;24.63;;;19.50;99.90;;;;;;5049868;28;20479;-37
2022/08/26 04:43:52;;;;;;;29.50;22.73;;;19.50;99.90;;;;;;5049830;28;20087;-37
2022/08/26 04:46:21;;;;;;;34.35;22.60;;;19.60;99.90;;;;;;5050498;28;20051;-37
2022/08/26 04:48:50;;;;;;;33.65;23.55;;;19.60;99.90;;;;;;5049668;28;20049;-37
2022/08/26 04:51:16;;;;;;;36.25;23.63;;;19.60;99.90;;;;;;5049915;28;20431;-37
2022/08/26 04:53:43;;;;;;;31.30;24.35;;;19.60;99.90;;;;;;5049829;28;20037;-37
2022/08/26 04:56:08;;;;;;;32.90;22.55;;;19.70;99.90;;;;;;5049482;28;20041;-37
2022/08/26 04:58:34;;;;;;;28.50;21.65;;;19.70;99.90;;;;;;5049342;28;20045;-37
2022/08/26 05:01:03;;;;;;;26.10;22.17;;;19.70;99.90;;;;;;5050079;28;20123;-37
2022/08/26 05:03:30;;;;;;;30.08;22.75;;;19.80;99.90;;;;;;5049624;28;20053;-37
2022/08/26 05:05:55;;;;;;;28.80;21.58;;;19.80;99.90;;;;;;5049152;28;20041;-37
2022/08/26 05:08:21;;;;;;;33.13;20.73;;;19.80;99.90;;;;;;5049245;28;20386;-37
2022/08/26 05:10:50;;;;;;;27.67;19.73;;;19.90;99.90;;;;;;5047509;28;20053;-37
2022/08/26 05:13:18;;;;;;;29.05;20.48;;;19.90;99.90;;;;;;5049000;28;20422;-37
2022/08/26 05:15:44;;;;;;;23.05;17.35;;;19.90;99.90;;;;;;5049075;28;20047;-37
2022/08/26 05:18:12;;;;;;;28.63;18.58;;;19.80;99.90;;;;;;5048610;28;20491;-37
2022/08/26 05:20:41;;;;;;;26.42;18.10;;;20.00;99.90;;;;;;5048473;28;20049;-37
2022/08/26 05:23:07;;;;;;;31.98;19.42;;;20.00;99.90;;;;;;5048956;28;20112;-37
2022/08/26 05:25:40;;;;;;;29.42;18.48;;;20.10;99.90;;;;;;5049322;28;20041;-37
2022/08/26 05:28:10;;;;;;;25.77;18.30;;;20.10;99.90;;;;;;5049630;28;20083;-37
2022/08/26 05:30:37;;;;;;;27.65;17.92;;;20.10;99.90;;;;;;5049260;28;20073;-37
2022/08/26 05:33:03;;;;;;;27.75;17.45;;;20.20;99.90;;;;;;5049369;28;20486;-37
2022/08/26 05:35:33;;;;;;;24.27;16.67;;;20.20;99.90;;;;;;5049317;28;20071;-37
2022/08/26 05:38:08;;;;;;;24.60;18.25;;;20.20;99.90;;;;;;5049011;28;20060;-37
2022/08/26 05:40:36;;;;;;;25.65;18.23;;;20.50;99.90;;;;;;5049085;28;20128;-37
2022/08/26 05:43:06;;;;;;;27.77;17.30;;;20.30;99.90;;;;;;5048795;28;20048;-37
2022/08/26 05:45:32;;;;;;;24.17;17.35;;;20.30;99.90;;;;;;5048981;28;20386;-37
2022/08/26 05:47:58;;;;;;;28.83;17.13;;;20.40;99.90;;;;;;5047526;28;20045;-37
2022/08/26 05:50:24;;;;;;;22.98;15.43;;;20.40;99.90;;;;;;5048547;28;20051;-37
2022/08/26 05:52:50;;;;;;;24.77;16.70;;;20.40;99.90;;;;;;5048685;28;20868;-37
2022/08/26 05:55:17;;;;;;;25.75;16.20;;;20.40;99.90;;;;;;5048505;28;20120;-37
2022/08/26 05:57:43;;;;;;;21.23;15.35;;;20.50;99.90;;;;;;5048775;28;20056;-37
2022/08/26 06:00:11;;;;;;;21.85;15.82;;;20.50;99.90;;;;;;5049085;28;20241;-37
2022/08/26 06:02:38;;;;;;;27.15;18.75;;;20.50;99.90;;;;;;5048170;28;20491;-37
2022/08/26 06:05:05;;;;;;;30.58;19.25;;;20.60;99.90;;;;;;5048038;28;20487;-37
2022/08/26 06:10:15;;;;;;;24.40;16.55;;;20.70;99.90;;;;;;5048194;28;20068;-37
2022/08/26 06:12:40;;;;;;;22.35;16.30;;;20.70;99.90;;;;;;5047841;28;20053;-37
2022/08/26 06:15:07;;;;;;;22.85;16.20;;;20.70;99.90;;;;;;5048213;28;20045;-37
2022/08/26 06:17:32;;;;;;;27.15;17.35;;;20.70;99.90;;;;;;5048255;28;20041;-37
2022/08/26 06:19:58;;;;;;;28.67;17.63;;;20.80;99.90;;;;;;5048039;28;20033;-37
2022/08/26 06:27:53;;;;;;;23.95;18.63;;;20.90;99.90;;;;;;5047764;28;20136;-37
2022/08/26 06:30:18;;;;;;;24.42;17.52;;;20.90;99.90;;;;;;5046447;28;20124;-37
2022/08/26 06:32:44;;;;;;;24.90;18.10;;;20.90;99.90;;;;;;5047088;28;20036;-37
2022/08/26 06:35:10;;;;;;;30.83;17.92;;;21.00;99.90;;;;;;5047599;28;20037;-37
2022/08/26 06:37:37;;;;;;;26.17;17.75;;;21.00;99.90;;;;;;5047820;28;20378;-37
2022/08/26 06:40:04;;;;;;;25.23;18.25;;;21.10;99.90;;;;;;5047398;28;20040;-37
2022/08/26 06:42:29;;;;;;;28.58;18.45;;;21.10;99.90;;;;;;5047252;28;20505;-37
2022/08/26 06:44:55;;;;;;;24.88;18.15;;;21.10;99.90;;;;;;5047406;28;20040;-37
2022/08/26 06:47:21;;;;;;;28.38;16.35;;;21.20;99.90;;;;;;5047518;28;20554;-37
2022/08/26 06:49:46;;;;;;;31.50;16.23;;;21.20;99.90;;;;;;5047420;28;20051;-37
2022/08/26 06:52:12;;;;;;;27.50;16.88;;;21.20;99.90;;;;;;5047706;28;20045;-37
2022/08/26 06:54:41;;;;;;;22.33;15.45;;;21.30;99.90;;;;;;5047805;28;20486;-37
2022/08/26 06:57:08;;;;;;;19.60;14.68;;;21.40;99.90;;;;;;5047609;28;20045;-37
2022/08/26 06:59:34;;;;;;;23.10;12.77;;;21.50;99.90;;;;;;5046945;28;20110;-37
2022/08/26 07:01:59;;;;;;;23.25;13.48;;;21.60;99.90;;;;;;5047558;28;20372;-37
2022/08/26 07:04:26;;;;;;;20.92;11.75;;;21.70;99.90;;;;;;5047761;28;20071;-37
2022/08/26 07:06:52;;;;;;;23.10;12.80;;;21.80;99.90;;;;;;5047784;28;20094;-37
2022/08/26 07:09:19;;;;;;;18.77;11.52;;;21.90;99.90;;;;;;5047720;28;20040;-37
2022/08/26 07:11:45;;;;;;;19.77;11.20;;;21.90;99.90;;;;;;5047484;28;20079;-37
2022/08/26 07:14:11;;;;;;;23.95;12.95;;;21.90;99.90;;;;;;5047161;28;20509;-37
2022/08/26 07:16:38;;;;;;;19.92;11.32;;;21.90;99.90;;;;;;5047377;28;20037;-37
2022/08/26 07:19:04;;;;;;;21.13;12.15;;;21.90;99.90;;;;;;5047405;28;20719;-37
2022/08/26 07:21:30;;;;;;;17.15;12.13;;;21.90;99.90;;;;;;5047466;28;20045;-37
2022/08/26 07:23:55;;;;;;;19.40;12.48;;;21.80;99.90;;;;;;5047027;28;20443;-37
2022/08/26 07:26:24;;;;;;;16.48;10.35;;;21.80;99.90;;;;;;5047226;28;20088;-37
2022/08/26 07:28:51;;;;;;;17.52;10.73;;;21.90;99.90;;;;;;5046989;28;20080;-37
2022/08/26 07:31:20;;;;;;;15.85;8.93;;;21.90;99.90;;;;;;5047447;28;20044;-37
2022/08/26 07:33:46;;;;;;;17.23;10.82;;;22.00;99.90;;;;;;5047201;28;20056;-37
2022/08/26 07:36:16;;;;;;;16.10;9.70;;;22.00;99.90;;;;;;5047131;28;20040;-37
2022/08/26 07:38:43;;;;;;;16.50;9.40;;;22.10;99.90;;;;;;5046588;28;20040;-37
2022/08/26 07:41:10;;;;;;;18.67;9.15;;;22.20;99.90;;;;;;5046829;28;20077;-37
2022/08/26 07:43:36;;;;;;;15.68;9.45;;;22.20;99.90;;;;;;5047088;28;20041;-37
2022/08/26 07:46:03;;;;;;;16.38;8.82;;;22.30;99.90;;;;;;5046478;28;20045;-37
2022/08/26 07:48:30;;;;;;;18.83;9.05;;;22.40;99.90;;;;;;5047087;28;20148;-37
2022/08/26 07:50:56;;;;;;;19.13;8.65;;;22.50;99.90;;;;;;5046457;28;20049;-37
2022/08/26 07:53:21;;;;;;;13.80;7.45;;;22.60;99.90;;;;;;5046545;28;20717;-37
2022/08/26 07:55:48;;;;;;;12.40;8.23;;;22.80;99.90;;;;;;5046464;28;20041;-37
2022/08/26 07:58:14;;;;;;;8.95;6.50;;;22.90;99.90;;;;;;5045317;28;20036;-37
2022/08/26 08:00:40;;;;;;;15.40;7.63;;;23.00;99.90;;;;;;5046834;28;20300;-37
2022/08/26 08:03:06;;;;;;;11.90;6.65;;;23.10;99.90;;;;;;5047093;28;20045;-38
2022/08/26 08:05:32;;;;;;;17.80;7.65;;;23.10;99.90;;;;;;5047468;28;20036;-37
2022/08/26 08:08:00;;;;;;;14.35;7.32;;;23.20;99.90;;;;;;5047369;28;20590;-37
2022/08/26 08:10:27;;;;;;;15.77;7.03;;;23.30;99.90;;;;;;5046280;28;20053;-37
2022/08/26 08:12:54;;;;;;;16.13;7.85;;;23.40;99.90;;;;;;5046951;28;20045;-37
2022/08/26 08:15:23;;;;;;;14.15;7.90;;;23.80;99.90;;;;;;5046919;28;20510;-37
2022/08/26 08:17:49;;;;;;;17.48;8.43;;;24.10;99.90;;;;;;5047475;28;20124;-37
2022/08/26 08:20:16;;;;;;;11.00;6.65;;;24.40;99.90;;;;;;5047241;28;20045;-37
2022/08/26 08:22:42;;;;;;;16.75;7.43;;;24.60;99.90;;;;;;5047214;28;20416;-37
2022/08/26 08:25:08;;;;;;;15.52;6.60;;;24.80;99.90;;;;;;5047446;28;20047;-37
2022/08/26 08:27:36;;;;;;;13.35;6.38;;;25.00;99.90;;;;;;5047689;28;20804;-37
2022/08/26 08:30:03;;;;;;;10.00;5.82;;;25.40;99.90;;;;;;5047360;28;20383;-37
2022/08/26 08:32:28;;;;;;;12.88;6.50;;;25.60;99.90;;;;;;5047101;28;20499;-37
2022/08/26 08:34:55;;;;;;;10.85;5.88;;;25.70;99.90;;;;;;5047323;28;20144;-38
2022/08/26 08:37:22;;;;;;;10.68;5.63;;;25.80;99.90;;;;;;5047002;28;20561;-37
2022/08/26 08:39:48;;;;;;;10.90;5.28;;;25.90;99.90;;;;;;5046806;28;20142;-37
2022/08/26 08:42:37;;;;;;;12.15;4.88;;;26.00;99.90;;;;;;5046492;28;20055;-37
2022/08/26 08:45:11;;;;;;;12.70;5.68;;;26.20;99.40;;;;;;5046325;28;20106;-37
2022/08/26 08:47:55;;;;;;;11.13;4.72;;;26.30;98.80;;;;;;5046680;28;20049;-37
2022/08/26 08:50:35;;;;;;;10.73;5.18;;;26.40;98.40;;;;;;5046657;28;20079;-37
2022/08/26 08:53:19;;;;;;;14.02;5.10;;;26.40;97.60;;;;;;5045689;28;20041;-37
2022/08/26 08:56:05;;;;;;;10.68;5.13;;;26.30;97.00;;;;;;5045722;28;20036;-37
2022/08/26 08:58:56;;;;;;;9.32;4.25;;;26.20;96.70;;;;;;5046668;28;20155;-37
2022/08/26 09:01:48;;;;;;;7.28;3.80;;;26.20;97.10;;;;;;5045982;28;20068;-37
2022/08/26 09:04:28;;;;;;;9.25;3.97;;;26.10;96.60;;;;;;5046480;28;20091;-37
2022/08/26 09:06:56;;;;;;;7.13;3.40;;;25.90;96.60;;;;;;5044486;28;20107;-37
2022/08/26 09:09:36;;;;;;;6.47;3.10;;;25.70;96.80;;;;;;5045673;28;20057;-37
2022/08/26 09:12:03;;;;;;;5.95;2.70;;;25.60;96.40;;;;;;5045856;28;20485;-37
2022/08/26 09:14:30;;;;;;;6.85;3.38;;;25.40;96.40;;;;;;5046600;28;20611;-37
2022/08/26 09:17:08;;;;;;;6.05;3.40;;;25.30;97.00;;;;;;5046619;28;20037;-37
2022/08/26 09:19:41;;;;;;;8.70;2.45;;;25.20;97.20;;;;;;5046465;28;20056;-37
2022/08/26 09:22:07;;;;;;;5.30;1.92;;;25.10;97.40;;;;;;5046069;28;20120;-37
2022/08/26 09:24:36;;;;;;;7.25;2.22;;;25.00;97.40;;;;;;5049893;28;20151;-37
2022/08/26 09:27:02;;;;;;;6.88;1.85;;;24.80;97.70;;;;;;5049475;28;20041;-37
2022/08/26 09:29:40;;;;;;;6.57;1.70;;;24.70;97.70;;;;;;5050194;28;20051;-37
2022/08/26 09:32:23;;;;;;;6.82;1.50;;;24.60;97.90;;;;;;5049934;28;20080;-37
2022/08/26 09:35:00;;;;;;;8.15;1.30;;;24.50;98.20;;;;;;5049620;28;20056;-38
2022/08/26 09:37:46;;;;;;;7.85;1.90;;;24.50;98.40;;;;;;5049345;28;20036;-37
2022/08/26 09:40:27;;;;;;;6.30;1.15;;;24.50;98.50;;;;;;5048651;28;20441;-37
2022/08/26 09:43:06;;;;;;;7.60;1.27;;;24.40;98.80;;;;;;5049001;28;20163;-37
2022/08/26 09:45:33;;;;;;;7.68;1.58;;;24.40;98.90;;;;;;5048932;28;20479;-37
2022/08/26 09:47:59;;;;;;;6.00;1.27;;;24.20;99.10;;;;;;5048983;28;20066;-37
2022/08/26 09:50:29;;;;;;;9.13;1.38;;;24.20;99.20;;;;;;5048587;28;20052;-37
2022/08/26 09:53:15;;;;;;;6.60;1.92;;;24.20;99.30;;;;;;5048978;28;20048;-37
2022/08/26 09:55:47;;;;;;;5.80;0.75;;;24.10;99.00;;;;;;5049088;28;20049;-37
2022/08/26 09:58:14;;;;;;;;;;;24.00;99.50;;;;;;5049438;28;20041;-37
2022/08/26 10:00:51;;;;;;;6.85;1.10;;;24.00;99.70;;;;;;5049102;28;20469;-37
2022/08/26 10:03:28;;;;;;;9.50;1.50;;;23.90;99.90;;;;;;5048946;28;20086;-37
2022/08/26 10:06:18;;;;;;;8.95;1.10;;;23.90;99.90;;;;;;5049196;28;20037;-37
2022/08/26 10:08:59;;;;;;;5.13;0.90;;;24.00;99.90;;;;;;5049681;28;20045;-37
2022/08/26 10:11:49;;;;;;;7.45;1.52;;;23.90;99.90;;;;;;5048733;28;20053;-37
2022/08/26 10:14:23;;;;;;;11.35;1.30;;;23.90;99.90;;;;;;5049304;28;20046;-37
2022/08/26 10:17:04;;;;;;;8.50;1.30;;;23.90;99.90;;;;;;5048983;28;20045;-37
2022/08/26 10:20:01;;;;;;;5.97;1.38;;;23.80;99.90;;;;;;5049389;28;20049;-37
2022/08/26 10:22:29;;;;;;;7.38;1.30;;;23.80;99.90;;;;;;5048632;28;20588;-37
2022/08/26 10:25:00;;;;;;;7.95;1.35;;;23.80;99.90;;;;;;5048744;28;20049;-37
2022/08/26 10:27:45;;;;;;;7.38;1.50;;;23.80;99.90;;;;;;5048973;28;20044;-37
2022/08/26 10:30:18;;;;;;;7.68;1.42;;;23.80;99.90;;;;;;5048352;28;20102;-37
2022/08/26 10:32:46;;;;;;;8.43;1.30;;;23.80;99.90;;;;;;5048257;28;20028;-37
2022/08/26 10:35:14;;;;;;;8.35;1.10;;;23.80;99.90;;;;;;5047821;28;20094;-37
2022/08/26 10:37:54;;;;;;;6.82;1.00;;;23.90;99.90;;;;;;5048134;28;20132;-37
2022/08/26 10:40:25;;;;;;;6.38;0.90;;;24.00;99.90;;;;;;5048689;28;20080;-37
2022/08/26 10:42:53;;;;;;;7.90;1.20;;;24.10;99.90;;;;;;5049256;28;20045;-37
2022/08/26 10:45:24;;;;;;;6.68;1.42;;;24.10;99.90;;;;;;5048731;28;20040;-37
2022/08/26 10:48:01;;;;;;;7.88;1.88;;;24.00;99.90;;;;;;5049393;28;20049;-37
2022/08/26 10:50:34;;;;;;;8.18;1.42;;;24.00;99.90;;;;;;5048956;28;20079;-37
2022/08/26 10:53:15;;;;;;;7.85;2.03;;;23.90;99.90;;;;;;5048017;28;20525;-37
2022/08/26 10:55:58;;;;;;;12.20;1.65;;;23.80;99.90;;;;;;5048351;28;20076;-37
2022/08/26 10:58:37;;;;;;;8.52;1.27;;;23.70;99.90;;;;;;5048378;28;20562;-37
2022/08/26 11:04:08;;;;;;;10.80;2.70;;;23.50;99.90;;;;;;5048313;28;20449;-37
2022/08/26 11:06:34;;;;;;;7.53;1.48;;;23.60;99.90;;;;;;5047262;28;20532;-37
2022/08/26 11:09:06;;;;;;;7.03;1.25;;;23.60;99.90;;;;;;5047982;28;20082;-37
2022/08/26 11:11:40;;;;;;;5.90;1.35;;;23.70;99.90;;;;;;5047468;28;20132;-37
2022/08/26 11:14:09;;;;;;;8.27;1.40;;;23.70;99.90;;;;;;5047817;28;20132;-37
2022/08/26 11:16:43;;;;;;;7.28;2.05;;;23.80;99.90;;;;;;5046726;28;20111;-37
2022/08/26 11:19:31;;;;;;;6.88;1.58;;;23.90;99.20;;;;;;5046967;28;20487;-37
2022/08/26 11:22:22;;;;;;;5.10;1.10;;;24.00;98.70;;;;;;5047243;28;20537;-37
2022/08/26 11:24:53;;;;;;;8.57;2.10;;;24.00;98.60;;;;;;5047961;28;20076;-37
2022/08/26 11:27:22;;;;;;;6.82;1.08;;;24.00;98.20;;;;;;5047116;28;20049;-37
2022/08/26 11:30:05;;;;;;;7.63;2.00;;;24.00;98.30;;;;;;5047619;28;20052;-37
2022/08/26 11:32:34;;;;;;;7.03;1.05;;;24.10;98.40;;;;;;5046480;28;20124;-37
2022/08/26 11:35:45;;;;;;;5.32;1.15;;;24.20;97.90;;;;;;5047207;28;20115;-37
2022/08/26 11:38:17;;;;;;;10.75;2.13;;;24.70;97.60;;;;;;5047113;28;20545;-37
2022/08/26 11:40:43;;;;;;;7.38;0.95;;;25.10;97.00;;;;;;5047376;28;20037;-37
2022/08/26 11:43:18;;;;;;;5.72;1.05;;;25.40;96.30;;;;;;5047381;28;20704;-37
2022/08/26 11:45:58;;;;;;;7.25;1.55;;;25.50;95.70;;;;;;5046446;28;20658;-37
2022/08/26 11:48:32;;;;;;;6.25;0.95;;;25.50;95.20;;;;;;5047607;28;20084;-37
2022/08/26 11:51:02;;;;;;;13.05;1.95;;;25.50;94.90;;;;;;5048017;28;20040;-37
2022/08/26 11:53:31;;;;;;;7.38;2.17;;;25.40;94.70;;;;;;5046606;28;20033;-37
2022/08/26 11:55:59;;;;;;;9.35;1.73;;;25.40;94.50;;;;;;5047130;28;20041;-37
2022/08/26 11:58:27;;;;;;;7.10;1.35;;;25.40;94.60;;;;;;5046719;28;20037;-37
2022/08/26 12:01:00;;;;;;;7.07;2.25;;;25.30;94.40;;;;;;5047039;28;20045;-37
2022/08/26 12:03:59;;;;;;;6.32;1.02;;;25.20;94.50;;;;;;5047083;28;20768;-37
2022/08/26 12:06:26;;;;;;;5.22;1.50;;;25.10;94.40;;;;;;5045419;28;20040;-37
2022/08/26 12:08:55;;;;;;;7.00;1.30;;;24.90;94.70;;;;;;5046965;28;20163;-37
2022/08/26 12:11:31;;;;;;;8.98;1.65;;;24.80;94.90;;;;;;5046661;28;20048;-37
2022/08/26 12:13:59;;;;;;;9.48;1.48;;;24.70;95.00;;;;;;5047197;28;20248;-37
2022/08/26 12:16:30;;;;;;;7.20;1.52;;;24.50;95.10;;;;;;5046097;28;20040;-37
2022/08/26 12:18:56;;;;;;;6.38;1.30;;;24.60;95.20;;;;;;5044800;28;20045;-37
2022/08/26 12:21:29;;;;;;;6.90;1.45;;;24.60;95.50;;;;;;5046241;28;20045;-37
2022/08/26 12:24:00;;;;;;;6.53;1.40;;;24.70;95.60;;;;;;5046351;28;20044;-37
2022/08/26 12:26:35;;;;;;;4.72;1.48;;;24.80;95.60;;;;;;5045772;28;20505;-37
2022/08/26 12:29:24;;;;;;;6.95;1.50;;;24.90;95.30;;;;;;5046339;28;20045;-37
2022/08/26 12:31:50;;;;;;;4.03;1.00;;;24.90;95.00;;;;;;5042204;28;20526;-37
2022/08/26 12:34:16;;;;;;;9.25;1.58;;;24.90;95.10;;;;;;5045917;28;20311;-37
2022/08/26 12:36:45;;;;;;;7.50;1.10;;;24.90;94.90;;;;;;5046035;28;20504;-37
2022/08/26 12:39:15;;;;;;;7.40;1.38;;;24.80;94.90;;;;;;5046137;28;20041;-37
2022/08/26 12:41:51;;;;;;;7.60;1.25;;;24.70;95.10;;;;;;5045551;28;20037;-37
2022/08/26 12:44:43;;;;;;;5.57;1.10;;;24.60;95.40;;;;;;5045843;28;20461;-37
2022/08/26 12:47:27;;;;;;;7.20;1.50;;;24.50;95.60;;;;;;5045810;28;20094;-37
2022/08/26 12:50:06;;;;;;;7.40;1.00;;;24.50;95.50;;;;;;5045814;28;20052;-37
2022/08/26 12:53:02;;;;;;;7.78;1.20;;;24.50;95.50;;;;;;5045554;28;20049;-37
2022/08/26 12:55:42;;;;;;;7.28;1.20;;;24.50;95.40;;;;;;5045354;28;20115;-37
2022/08/26 12:58:11;;;;;;;6.75;0.98;;;24.50;95.50;;;;;;5047776;28;20041;-37
2022/08/26 13:00:39;;;;;;;4.75;1.00;;;24.60;95.40;;;;;;5049406;28;20068;-37